createdAt,value
2022-11-30T00:01:36.070Z,34.20
2022-11-30T00:04:04.121Z,31.50
2022-11-30T00:06:32.099Z,30.40
2022-11-30T00:09:00.253Z,33.90
2022-11-30T00:11:28.705Z,35.20
2022-11-30T00:13:58.919Z,33.30
2022-11-30T00:16:27.684Z,33.10
2022-11-30T00:18:55.826Z,33.10
2022-11-30T00:21:26.158Z,33.20
2022-11-30T00:23:55.162Z,32.20
2022-11-30T00:26:23.359Z,33.00
2022-11-30T00:28:51.994Z,29.80
2022-11-30T00:31:21.087Z,32.00
2022-11-30T00:33:49.208Z,31.80
2022-11-30T00:36:22.092Z,31.40
2022-11-30T00:38:52.011Z,29.60
2022-11-30T00:41:21.306Z,30.90
2022-11-30T00:43:49.216Z,32.30
2022-11-30T00:46:17.423Z,30.30
2022-11-30T00:48:45.645Z,31.30
2022-11-30T00:51:14.384Z,28.70
2022-11-30T00:53:42.696Z,30.80
2022-11-30T00:56:11.305Z,31.60
2022-11-30T00:58:40.166Z,32.40
2022-11-30T01:01:08.782Z,31.90
2022-11-30T01:03:37.889Z,30.40
2022-11-30T01:06:08.323Z,29.20
2022-11-30T01:08:37.354Z,30.00
2022-11-30T01:11:14.880Z,28.50
2022-11-30T01:13:42.848Z,31.00
2022-11-30T01:16:15.680Z,28.00
2022-11-30T01:18:44.559Z,27.10
2022-11-30T01:21:16.389Z,30.50
2022-11-30T01:23:45.468Z,27.80
2022-11-30T01:26:14.794Z,28.20
2022-11-30T01:28:44.297Z,26.80
2022-11-30T01:31:14.657Z,27.90
2022-11-30T01:33:43.301Z,28.50
2022-11-30T01:36:18.060Z,26.90
2022-11-30T01:38:51.344Z,29.20
2022-11-30T01:41:23.563Z,28.60
2022-11-30T01:44:19.778Z,28.90
2022-11-30T01:47:08.972Z,30.40
2022-11-30T01:49:41.557Z,31.30
2022-11-30T01:52:13.853Z,30.10
2022-11-30T01:54:51.921Z,30.00
2022-11-30T01:57:38.847Z,29.20
2022-11-30T02:00:11.209Z,31.20
2022-11-30T02:02:47.994Z,30.90
2022-11-30T02:05:18.207Z,28.80
2022-11-30T02:07:46.475Z,30.20
2022-11-30T02:10:18.214Z,30.00
2022-11-30T02:13:08.244Z,28.60
2022-11-30T02:16:08.436Z,28.00
2022-11-30T02:19:06.392Z,28.10
2022-11-30T02:21:46.422Z,25.60
2022-11-30T02:24:52.151Z,25.10
2022-11-30T02:27:43.882Z,25.40
2022-11-30T02:30:16.951Z,26.70
2022-11-30T02:32:51.882Z,24.90
2022-11-30T02:35:25.135Z,24.00
2022-11-30T02:37:56.380Z,25.30
2022-11-30T02:40:24.530Z,26.90
2022-11-30T02:42:55.954Z,26.10
2022-11-30T02:45:49.195Z,26.70
2022-11-30T02:48:24.073Z,26.00
2022-11-30T02:50:57.819Z,25.80
2022-11-30T02:53:26.274Z,27.40
2022-11-30T02:55:54.863Z,27.80
2022-11-30T02:58:22.946Z,28.00
2022-11-30T03:00:50.930Z,26.70
2022-11-30T03:03:18.897Z,27.50
2022-11-30T03:05:48.092Z,28.50
2022-11-30T03:08:16.004Z,28.10
2022-11-30T03:10:44.059Z,24.80
2022-11-30T03:13:12.282Z,29.60
2022-11-30T03:15:40.294Z,36.10
2022-11-30T03:18:08.277Z,38.60
2022-11-30T03:20:43.543Z,32.50
2022-11-30T03:23:11.817Z,37.20
2022-11-30T03:25:39.782Z,41.70
2022-11-30T03:28:08.058Z,34.90
2022-11-30T03:30:36.060Z,34.50
2022-11-30T03:33:05.298Z,33.30
2022-11-30T03:35:33.283Z,32.50
2022-11-30T03:38:03.474Z,34.70
2022-11-30T03:40:31.488Z,34.70
2022-11-30T03:43:00.003Z,36.40
2022-11-30T03:45:28.142Z,34.90
2022-11-30T03:47:56.387Z,40.10
2022-11-30T03:50:24.338Z,44.60
2022-11-30T03:52:52.347Z,46.30
2022-11-30T03:55:20.231Z,46.60
2022-11-30T03:57:48.145Z,44.00
2022-11-30T04:00:18.130Z,43.40
2022-11-30T04:02:47.277Z,42.20
2022-11-30T04:05:15.371Z,42.10
2022-11-30T04:07:43.528Z,41.70
2022-11-30T04:10:11.783Z,41.80
2022-11-30T04:12:39.793Z,44.00
2022-11-30T04:15:09.147Z,44.20
2022-11-30T04:17:37.084Z,45.40
2022-11-30T04:20:05.872Z,46.40
2022-11-30T04:22:34.104Z,51.10
2022-11-30T04:25:02.043Z,48.60
2022-11-30T04:27:30.014Z,48.50
2022-11-30T04:29:57.989Z,48.70
2022-11-30T04:32:25.949Z,45.20
2022-11-30T04:34:55.294Z,49.60
2022-11-30T04:37:23.199Z,48.90
2022-11-30T04:39:51.275Z,49.40
2022-11-30T04:42:19.328Z,49.00
2022-11-30T04:44:47.506Z,50.80
2022-11-30T04:47:15.852Z,51.70
2022-11-30T04:49:43.868Z,60.70
2022-11-30T04:52:12.833Z,61.50
2022-11-30T04:54:40.773Z,60.70
2022-11-30T04:57:09.297Z,56.70
2022-11-30T04:59:37.437Z,52.20
2022-11-30T05:02:05.491Z,48.20
2022-11-30T05:04:33.659Z,49.80
2022-11-30T05:07:01.627Z,50.40
2022-11-30T05:09:29.602Z,48.70
2022-11-30T05:11:57.627Z,45.80
2022-11-30T05:14:27.199Z,43.90
2022-11-30T05:16:55.185Z,40.00
2022-11-30T05:19:23.089Z,41.60
2022-11-30T05:21:51.113Z,44.20
2022-11-30T05:24:19.972Z,48.30
2022-11-30T05:26:47.902Z,44.20
2022-11-30T05:29:15.844Z,39.30
2022-11-30T05:31:43.895Z,39.00
2022-11-30T05:34:12.098Z,40.00
2022-11-30T05:36:40.144Z,42.10
2022-11-30T05:39:08.621Z,45.50
2022-11-30T05:41:37.639Z,45.20
2022-11-30T05:44:06.877Z,31.00
2022-11-30T05:46:38.327Z,27.90
2022-11-30T05:49:08.770Z,24.10
2022-11-30T05:51:36.769Z,24.50
2022-11-30T05:54:04.867Z,24.80
2022-11-30T05:56:33.156Z,26.90
2022-11-30T05:59:01.135Z,25.40
2022-11-30T06:01:30.089Z,26.00
2022-11-30T06:03:58.209Z,25.60
2022-11-30T06:06:26.236Z,27.40
2022-11-30T06:08:54.622Z,48.20
2022-11-30T06:11:22.671Z,52.50
2022-11-30T06:13:50.739Z,50.00
2022-11-30T06:16:19.051Z,48.00
2022-11-30T06:18:47.214Z,48.00
2022-11-30T06:21:19.636Z,48.30
2022-11-30T06:23:50.774Z,46.70
2022-11-30T06:26:19.336Z,48.00
2022-11-30T06:28:48.868Z,46.60
2022-11-30T06:31:18.430Z,45.10
2022-11-30T06:33:46.396Z,44.40
2022-11-30T06:36:14.454Z,43.30
2022-11-30T06:38:42.921Z,42.50
2022-11-30T06:41:12.622Z,42.40
2022-11-30T06:43:41.188Z,43.00
2022-11-30T06:46:09.722Z,43.70
2022-11-30T06:48:38.559Z,43.40
2022-11-30T06:51:09.940Z,43.10
2022-11-30T06:53:38.313Z,42.60
2022-11-30T06:56:10.386Z,44.10
2022-11-30T06:58:40.174Z,42.50
2022-11-30T07:01:15.436Z,43.90
2022-11-30T07:03:44.670Z,43.20
2022-11-30T07:06:14.176Z,41.80
2022-11-30T07:08:43.446Z,43.90
2022-11-30T07:11:12.813Z,47.50
2022-11-30T07:13:41.120Z,44.30
2022-11-30T07:16:11.572Z,42.50
2022-11-30T07:18:42.693Z,43.60
2022-11-30T07:21:12.658Z,43.60
2022-11-30T07:23:58.983Z,46.10
2022-11-30T07:26:28.978Z,47.90
2022-11-30T07:28:59.146Z,48.30
2022-11-30T07:31:29.943Z,49.50
2022-11-30T07:33:59.547Z,47.70
2022-11-30T07:36:27.995Z,46.00
2022-11-30T07:38:56.057Z,40.80
2022-11-30T07:41:26.332Z,43.80
2022-11-30T07:43:55.818Z,44.90
2022-11-30T07:46:24.000Z,45.50
2022-11-30T07:48:53.446Z,44.60
2022-11-30T07:51:22.999Z,45.80
2022-11-30T07:53:51.563Z,45.10
2022-11-30T07:56:20.858Z,44.90
2022-11-30T07:58:58.185Z,42.90
2022-11-30T08:01:29.274Z,43.40
2022-11-30T08:04:14.345Z,39.20
2022-11-30T08:06:42.849Z,41.20
2022-11-30T08:09:14.266Z,41.90
2022-11-30T08:11:46.055Z,40.10
2022-11-30T08:14:14.088Z,39.20
2022-11-30T08:16:44.302Z,37.40
2022-11-30T08:19:12.292Z,37.40
2022-11-30T08:21:41.125Z,35.20
2022-11-30T08:24:11.963Z,32.20
2022-11-30T08:26:40.310Z,31.60
2022-11-30T08:29:11.084Z,31.90
2022-11-30T08:31:39.768Z,33.10
2022-11-30T08:34:10.751Z,31.50
2022-11-30T08:36:40.665Z,32.10
2022-11-30T08:39:09.290Z,33.10
2022-11-30T08:41:39.281Z,30.60
2022-11-30T08:44:07.496Z,30.30
2022-11-30T08:46:51.656Z,34.50
2022-11-30T08:52:19.170Z,30.60
2022-11-30T08:54:48.592Z,29.10
2022-11-30T08:57:19.736Z,32.10
2022-11-30T08:59:48.122Z,32.70
2022-11-30T09:02:19.912Z,33.10
2022-11-30T09:04:51.233Z,33.40
2022-11-30T09:07:20.226Z,33.50
2022-11-30T09:09:49.981Z,33.80
2022-11-30T09:12:17.979Z,33.50
2022-11-30T09:14:53.995Z,32.70
2022-11-30T09:17:25.717Z,32.50
2022-11-30T09:19:55.133Z,35.20
2022-11-30T09:22:23.848Z,33.40
2022-11-30T09:24:51.976Z,34.60
2022-11-30T09:27:22.066Z,34.20
2022-11-30T09:29:51.482Z,36.40
2022-11-30T09:32:19.541Z,36.80
2022-11-30T09:34:50.608Z,36.60
2022-11-30T09:37:20.264Z,39.00
2022-11-30T09:39:48.422Z,38.00
2022-11-30T09:42:29.408Z,41.70
2022-11-30T09:45:20.721Z,42.00
2022-11-30T09:48:03.879Z,44.00
2022-11-30T09:50:39.146Z,41.10
2022-11-30T09:55:44.883Z,38.60
2022-11-30T09:58:29.963Z,37.70
2022-11-30T10:01:03.661Z,37.40
2022-11-30T10:03:36.594Z,37.20
2022-11-30T10:06:21.079Z,38.10
2022-11-30T10:09:03.484Z,37.60
2022-11-30T10:12:04.669Z,39.40
2022-11-30T10:14:48.172Z,39.40
2022-11-30T10:17:16.500Z,39.60
2022-11-30T10:20:15.547Z,36.00
2022-11-30T10:23:19.749Z,38.90
2022-11-30T10:25:56.182Z,41.50
2022-11-30T10:28:47.934Z,38.40
2022-11-30T10:31:39.512Z,39.30
2022-11-30T10:34:35.795Z,35.00
2022-11-30T10:37:12.405Z,31.40
2022-11-30T10:39:56.458Z,29.30
2022-11-30T10:42:50.761Z,29.30
2022-11-30T10:45:24.423Z,31.30
2022-11-30T10:48:21.523Z,29.80
2022-11-30T10:50:52.437Z,29.20
2022-11-30T10:53:22.521Z,30.40
2022-11-30T10:56:04.455Z,29.30
2022-11-30T10:58:41.273Z,29.30
2022-11-30T11:01:28.963Z,30.30
2022-11-30T11:04:17.805Z,31.10
2022-11-30T11:06:58.492Z,31.40
2022-11-30T11:09:27.518Z,32.50
2022-11-30T11:12:21.711Z,31.50
2022-11-30T11:15:09.500Z,30.80
2022-11-30T11:17:37.691Z,31.80
2022-11-30T11:20:31.306Z,30.30
2022-11-30T11:22:59.862Z,31.60
2022-11-30T11:25:39.339Z,31.70
2022-11-30T11:28:18.878Z,32.40
2022-11-30T11:30:47.083Z,30.80
2022-11-30T11:33:24.141Z,34.70
2022-11-30T11:35:54.960Z,33.30
2022-11-30T11:38:41.770Z,34.40
2022-11-30T11:41:35.202Z,33.20
2022-11-30T11:44:22.670Z,32.30
2022-11-30T11:46:57.808Z,31.00
2022-11-30T11:52:10.856Z,32.20
2022-11-30T11:54:47.544Z,31.90
2022-11-30T11:57:20.088Z,29.20
2022-11-30T11:59:51.613Z,28.90
2022-11-30T12:03:04.770Z,29.20
2022-11-30T12:05:54.198Z,28.70
2022-11-30T12:08:28.191Z,29.90
2022-11-30T12:11:26.852Z,27.80
2022-11-30T12:13:55.452Z,27.60
2022-11-30T12:16:24.703Z,27.90
2022-11-30T12:19:08.151Z,26.60
2022-11-30T12:21:52.287Z,24.70
2022-11-30T12:24:28.737Z,24.90
2022-11-30T12:27:24.214Z,27.90
2022-11-30T12:29:52.590Z,24.90
2022-11-30T12:32:27.209Z,23.40
2022-11-30T12:35:10.760Z,23.90
2022-11-30T12:38:10.240Z,25.50
2022-11-30T12:40:53.961Z,25.30
2022-11-30T12:43:34.114Z,23.60
2022-11-30T12:46:15.556Z,23.70
2022-11-30T12:49:12.091Z,24.10
2022-11-30T12:52:07.891Z,22.90
2022-11-30T12:54:56.740Z,29.10
2022-11-30T12:57:42.340Z,24.70
2022-11-30T13:00:19.086Z,23.30
2022-11-30T13:03:04.836Z,22.40
2022-11-30T13:05:58.554Z,24.60
2022-11-30T13:08:34.960Z,20.70
2022-11-30T13:11:08.586Z,21.00
2022-11-30T13:13:43.412Z,22.00
2022-11-30T13:16:11.894Z,21.30
2022-11-30T13:18:42.487Z,21.30
2022-11-30T13:21:30.704Z,20.10
2022-11-30T13:24:10.104Z,21.70
2022-11-30T13:27:08.081Z,20.90
2022-11-30T13:30:03.152Z,20.60
2022-11-30T13:32:57.573Z,19.40
2022-11-30T13:35:29.440Z,18.20
2022-11-30T13:38:36.494Z,19.20
2022-11-30T13:41:09.378Z,25.90
2022-11-30T13:43:45.796Z,20.10
2022-11-30T13:46:21.034Z,23.30
2022-11-30T13:48:49.897Z,19.80
2022-11-30T13:51:36.703Z,20.20
2022-11-30T13:54:41.615Z,16.90
2022-11-30T13:57:35.760Z,18.50
2022-11-30T14:00:33.058Z,17.50
2022-11-30T14:06:56.606Z,16.30
2022-11-30T14:09:40.032Z,17.30
2022-11-30T14:12:35.033Z,16.60
2022-11-30T14:15:38.472Z,17.80
2022-11-30T14:18:11.848Z,15.50
2022-11-30T14:21:15.003Z,15.50
2022-11-30T14:23:50.540Z,16.50
2022-11-30T14:26:28.333Z,18.50
2022-11-30T14:29:02.458Z,17.30
2022-11-30T14:32:12.539Z,18.30
2022-11-30T14:34:46.506Z,19.60
2022-11-30T14:37:27.560Z,17.80
2022-11-30T14:39:56.895Z,18.50
2022-11-30T14:42:30.540Z,18.40
2022-11-30T14:45:00.168Z,24.90
2022-11-30T14:47:34.881Z,18.20
2022-11-30T14:50:06.304Z,17.30
2022-11-30T14:52:54.494Z,16.00
2022-11-30T14:55:34.296Z,18.10
2022-11-30T14:58:23.505Z,19.30
2022-11-30T15:00:52.067Z,20.10
2022-11-30T15:03:38.898Z,20.70
2022-11-30T15:06:08.788Z,20.70
2022-11-30T15:08:48.360Z,20.60
2022-11-30T15:11:17.913Z,19.20
2022-11-30T15:13:55.994Z,17.90
2022-11-30T15:16:25.968Z,17.80
2022-11-30T15:18:56.654Z,16.60
2022-11-30T15:21:28.821Z,16.60
2022-11-30T15:24:01.595Z,18.10
2022-11-30T15:26:48.921Z,16.10
2022-11-30T15:29:26.567Z,17.80
2022-11-30T15:31:58.495Z,18.60
2022-11-30T15:34:57.650Z,24.00
2022-11-30T15:37:38.573Z,17.90
2022-11-30T15:40:09.977Z,18.30
2022-11-30T15:42:40.707Z,18.30
2022-11-30T15:45:31.791Z,18.80
2022-11-30T15:48:02.765Z,19.90
2022-11-30T15:50:37.342Z,19.10
2022-11-30T15:53:23.224Z,19.30
2022-11-30T15:55:55.408Z,19.10
2022-11-30T15:58:45.900Z,17.50
2022-11-30T16:01:25.194Z,17.40
2022-11-30T16:03:56.600Z,19.40
2022-11-30T16:06:28.165Z,18.90
2022-11-30T16:08:57.329Z,23.50
2022-11-30T16:11:25.847Z,22.40
2022-11-30T16:13:57.364Z,24.10
2022-11-30T16:16:31.115Z,25.10
2022-11-30T16:18:59.503Z,20.80
2022-11-30T16:21:28.552Z,19.50
2022-11-30T16:23:58.525Z,25.30
2022-11-30T16:29:15.846Z,36.60
2022-11-30T16:31:46.475Z,20.90
2022-11-30T16:34:14.609Z,20.40
2022-11-30T16:36:42.748Z,20.30
2022-11-30T16:39:13.439Z,20.20
2022-11-30T16:41:42.505Z,20.50
2022-11-30T16:44:14.486Z,21.80
2022-11-30T16:46:42.701Z,33.20
2022-11-30T16:49:11.185Z,24.00
2022-11-30T16:51:41.956Z,23.60
2022-11-30T16:54:16.723Z,23.50
2022-11-30T16:56:47.683Z,24.90
2022-11-30T16:59:16.975Z,24.60
2022-11-30T17:01:53.572Z,24.40
2022-11-30T17:04:23.279Z,23.80
2022-11-30T17:06:57.175Z,22.20
2022-11-30T17:09:31.146Z,20.30
2022-11-30T17:11:59.263Z,20.60
2022-11-30T17:14:28.135Z,19.90
2022-11-30T17:16:56.466Z,19.00
2022-11-30T17:19:27.553Z,19.70
2022-11-30T17:21:56.270Z,20.00
2022-11-30T17:24:24.647Z,19.20
2022-11-30T17:27:00.956Z,19.60
2022-11-30T17:29:30.968Z,19.30
2022-11-30T17:32:00.400Z,18.70
2022-11-30T17:34:28.557Z,18.80
2022-11-30T17:36:57.286Z,18.50
2022-11-30T17:39:26.535Z,17.60
2022-11-30T17:41:55.127Z,18.50
2022-11-30T17:44:25.986Z,19.70
2022-11-30T17:46:54.340Z,18.90
2022-11-30T17:49:23.686Z,19.40
2022-11-30T17:51:51.828Z,18.80
2022-11-30T17:54:21.568Z,20.30
2022-11-30T17:56:50.181Z,19.00
2022-11-30T17:59:19.481Z,20.30
2022-11-30T18:01:48.402Z,21.00
2022-11-30T18:04:18.733Z,20.10
2022-11-30T18:06:46.793Z,19.40
2022-11-30T18:09:14.971Z,18.70
2022-11-30T18:11:42.991Z,18.60
2022-11-30T18:14:11.653Z,18.90
2022-11-30T18:16:42.148Z,19.00
2022-11-30T18:19:14.801Z,20.00
2022-11-30T18:21:46.171Z,21.00
2022-11-30T18:24:14.515Z,22.40
2022-11-30T18:26:42.519Z,21.80
2022-11-30T18:29:11.179Z,23.50
2022-11-30T18:31:39.425Z,22.70
2022-11-30T18:34:07.763Z,23.20
2022-11-30T18:36:36.813Z,23.30
2022-11-30T18:39:05.539Z,20.70
2022-11-30T18:41:33.638Z,23.20
2022-11-30T18:44:01.739Z,23.00
2022-11-30T18:46:33.337Z,23.40
2022-11-30T18:49:04.154Z,24.00
2022-11-30T18:51:32.965Z,24.00
2022-11-30T18:54:05.112Z,23.70
2022-11-30T18:56:36.938Z,25.70
2022-11-30T18:59:09.102Z,24.40
2022-11-30T19:01:37.484Z,24.20
2022-11-30T19:04:08.676Z,23.60
2022-11-30T19:06:40.520Z,23.50
2022-11-30T19:09:12.173Z,22.60
2022-11-30T19:11:41.701Z,22.20
2022-11-30T19:14:14.247Z,22.90
2022-11-30T19:16:46.008Z,21.60
2022-11-30T19:19:15.489Z,23.30
2022-11-30T19:21:47.383Z,23.90
2022-11-30T19:24:17.474Z,23.20
2022-11-30T19:26:46.294Z,23.50
2022-11-30T19:29:15.160Z,24.10
2022-11-30T19:31:43.892Z,24.00
2022-11-30T19:34:13.161Z,23.10
2022-11-30T19:36:42.007Z,24.10
2022-11-30T19:39:11.280Z,23.60
2022-11-30T19:41:39.375Z,22.90
2022-11-30T19:44:13.524Z,23.10
2022-11-30T19:46:42.001Z,22.90
2022-11-30T19:49:11.732Z,23.80
2022-11-30T19:51:43.390Z,23.60
2022-11-30T19:54:11.600Z,23.80
2022-11-30T19:56:41.950Z,24.10
2022-11-30T19:59:10.497Z,23.40
2022-11-30T20:01:39.104Z,24.00
2022-11-30T20:04:07.444Z,23.40
2022-11-30T20:06:37.685Z,23.70
2022-11-30T20:09:10.430Z,24.90
2022-11-30T20:11:38.834Z,25.40
2022-11-30T20:14:07.181Z,25.50
2022-11-30T20:16:36.094Z,24.40
2022-11-30T20:19:04.332Z,24.30
2022-11-30T20:21:34.866Z,24.50
2022-11-30T20:24:06.928Z,25.60
2022-11-30T20:26:38.949Z,26.50
2022-11-30T20:29:15.136Z,25.60
2022-11-30T20:31:45.376Z,26.60
2022-11-30T20:34:17.219Z,26.10
2022-11-30T20:36:45.572Z,26.90
2022-11-30T20:39:15.212Z,26.50
2022-11-30T20:41:43.976Z,24.90
2022-11-30T20:44:16.524Z,24.30
2022-11-30T20:46:44.611Z,25.50
2022-11-30T20:49:17.775Z,24.20
2022-11-30T20:51:46.931Z,25.40
2022-11-30T20:54:16.631Z,24.30
2022-11-30T20:56:47.767Z,23.70
2022-11-30T20:59:23.735Z,24.00
2022-11-30T21:01:54.446Z,24.90
2022-11-30T21:04:24.728Z,26.70
2022-11-30T21:06:54.351Z,26.40
2022-11-30T21:09:22.547Z,24.20
2022-11-30T21:11:50.551Z,24.20
2022-11-30T21:14:18.653Z,25.60
2022-11-30T21:16:48.282Z,25.50
2022-11-30T21:19:16.783Z,25.00
2022-11-30T21:21:45.001Z,26.00
2022-11-30T21:24:13.114Z,27.20
2022-11-30T21:26:43.451Z,26.70
2022-11-30T21:29:14.419Z,28.00
2022-11-30T21:31:43.354Z,37.60
2022-11-30T21:34:12.267Z,40.00
2022-11-30T21:36:40.827Z,41.20
2022-11-30T21:39:09.088Z,39.50
2022-11-30T21:41:39.359Z,41.50
2022-11-30T21:44:10.621Z,43.50
2022-11-30T21:46:40.272Z,48.00
2022-11-30T21:49:10.115Z,46.20
2022-11-30T21:51:38.338Z,50.60
2022-11-30T21:54:10.028Z,49.00
2022-11-30T21:56:40.592Z,48.40
2022-11-30T21:59:09.896Z,47.80
2022-11-30T22:01:42.707Z,47.60
2022-11-30T22:04:12.310Z,47.00
2022-11-30T22:06:43.389Z,48.20
2022-11-30T22:09:14.344Z,45.90
2022-11-30T22:11:45.111Z,44.80
2022-11-30T22:14:16.051Z,42.00
2022-11-30T22:16:45.033Z,43.20
2022-11-30T22:19:15.496Z,43.90
2022-11-30T22:21:49.425Z,49.00
2022-11-30T22:24:18.642Z,46.70
2022-11-30T22:26:49.313Z,43.10
2022-11-30T22:29:22.559Z,38.70
2022-11-30T22:31:53.370Z,38.30
2022-11-30T22:34:21.480Z,37.80
2022-11-30T22:36:50.693Z,33.60
2022-11-30T22:39:21.398Z,32.50
2022-11-30T22:41:55.251Z,30.50
2022-11-30T22:44:25.749Z,29.60
2022-11-30T22:46:53.884Z,30.50
2022-11-30T22:49:22.367Z,29.00
2022-11-30T22:51:51.138Z,27.50
2022-11-30T22:54:19.270Z,29.20
2022-11-30T22:56:47.401Z,29.70
2022-11-30T22:59:15.929Z,29.30
2022-11-30T23:01:49.608Z,26.20
2022-11-30T23:04:20.422Z,27.50
2022-11-30T23:06:49.877Z,25.50
2022-11-30T23:09:21.765Z,25.60
2022-11-30T23:11:51.315Z,24.60
2022-11-30T23:14:20.001Z,25.60
2022-11-30T23:16:48.255Z,24.30
2022-11-30T23:19:16.700Z,25.60
2022-11-30T23:21:46.010Z,23.90
2022-11-30T23:24:20.307Z,24.20
2022-11-30T23:26:49.441Z,24.10
2022-11-30T23:29:18.172Z,23.90
2022-11-30T23:31:47.864Z,23.00
2022-11-30T23:34:21.394Z,23.30
2022-11-30T23:36:50.998Z,23.80
2022-11-30T23:39:19.939Z,22.90
2022-11-30T23:41:49.082Z,23.20
2022-11-30T23:44:17.343Z,23.00
2022-11-30T23:46:45.548Z,36.30
2022-11-30T23:49:14.388Z,39.00
2022-11-30T23:51:43.214Z,40.80
2022-11-30T23:54:11.403Z,39.00
2022-11-30T23:56:39.613Z,41.10
2022-11-30T23:59:07.826Z,41.40
